sensor_id;sensor_type;location;lat;lon;timestamp;temperature;humidity
7806;DHT22;3948;48.138;11.530;2022-08-01T00:00:06;21.70;73.60
7806;DHT22;3948;48.138;11.530;2022-08-01T00:02:32;21.70;73.90
7806;DHT22;3948;48.138;11.530;2022-08-01T00:04:57;21.70;74.30
7806;DHT22;3948;48.138;11.530;2022-08-01T00:07:23;21.60;74.50
7806;DHT22;3948;48.138;11.530;2022-08-01T00:09:49;21.50;74.70
7806;DHT22;3948;48.138;11.530;2022-08-01T00:12:14;21.50;74.90
7806;DHT22;3948;48.138;11.530;2022-08-01T00:14:40;21.40;74.80
7806;DHT22;3948;48.138;11.530;2022-08-01T00:17:06;21.40;74.60
7806;DHT22;3948;48.138;11.530;2022-08-01T00:19:31;21.40;74.60
7806;DHT22;3948;48.138;11.530;2022-08-01T00:21:57;21.30;74.40
7806;DHT22;3948;48.138;11.530;2022-08-01T00:24:23;21.20;74.80
7806;DHT22;3948;48.138;11.530;2022-08-01T00:26:49;21.20;75.00
7806;DHT22;3948;48.138;11.530;2022-08-01T00:29:14;21.20;75.40
7806;DHT22;3948;48.138;11.530;2022-08-01T00:31:40;21.10;75.70
7806;DHT22;3948;48.138;11.530;2022-08-01T00:34:06;21.00;75.70
7806;DHT22;3948;48.138;11.530;2022-08-01T00:36:31;21.00;76.10
7806;DHT22;3948;48.138;11.530;2022-08-01T00:38:57;20.90;76.40
7806;DHT22;3948;48.138;11.530;2022-08-01T00:41:23;20.70;76.80
7806;DHT22;3948;48.138;11.530;2022-08-01T00:43:48;20.80;77.10
7806;DHT22;3948;48.138;11.530;2022-08-01T00:46:14;20.70;77.20
7806;DHT22;3948;48.138;11.530;2022-08-01T00:48:40;20.70;77.60
7806;DHT22;3948;48.138;11.530;2022-08-01T00:51:07;20.70;77.70
7806;DHT22;3948;48.138;11.530;2022-08-01T00:53:33;20.70;77.90
7806;DHT22;3948;48.138;11.530;2022-08-01T00:55:59;20.70;78.20
7806;DHT22;3948;48.138;11.530;2022-08-01T00:58:25;20.60;78.60
7806;DHT22;3948;48.138;11.530;2022-08-01T01:00:51;20.60;78.80
7806;DHT22;3948;48.138;11.530;2022-08-01T01:03:17;20.50;79.10
7806;DHT22;3948;48.138;11.530;2022-08-01T01:06:05;20.50;79.10
7806;DHT22;3948;48.138;11.530;2022-08-01T01:08:43;20.50;79.40
7806;DHT22;3948;48.138;11.530;2022-08-01T01:11:28;20.50;79.60
7806;DHT22;3948;48.138;11.530;2022-08-01T01:14:00;20.50;79.80
7806;DHT22;3948;48.138;11.530;2022-08-01T01:16:29;20.50;79.90
7806;DHT22;3948;48.138;11.530;2022-08-01T01:19:00;20.50;80.00
7806;DHT22;3948;48.138;11.530;2022-08-01T01:21:35;20.40;80.00
7806;DHT22;3948;48.138;11.530;2022-08-01T01:24:44;20.50;80.40
7806;DHT22;3948;48.138;11.530;2022-08-01T01:27:21;20.40;80.70
7806;DHT22;3948;48.138;11.530;2022-08-01T01:29:54;20.30;80.70
7806;DHT22;3948;48.138;11.530;2022-08-01T01:32:43;20.30;80.70
7806;DHT22;3948;48.138;11.530;2022-08-01T01:35:21;20.30;81.30
7806;DHT22;3948;48.138;11.530;2022-08-01T01:37:51;20.30;81.60
7806;DHT22;3948;48.138;11.530;2022-08-01T01:40:20;20.30;81.80
7806;DHT22;3948;48.138;11.530;2022-08-01T01:42:47;20.20;82.20
7806;DHT22;3948;48.138;11.530;2022-08-01T01:45:15;20.10;82.60
7806;DHT22;3948;48.138;11.530;2022-08-01T01:47:42;20.10;82.90
7806;DHT22;3948;48.138;11.530;2022-08-01T01:50:11;20.10;83.10
7806;DHT22;3948;48.138;11.530;2022-08-01T01:52:39;20.10;83.20
7806;DHT22;3948;48.138;11.530;2022-08-01T01:55:07;20.10;83.40
7806;DHT22;3948;48.138;11.530;2022-08-01T01:57:39;20.10;83.70
7806;DHT22;3948;48.138;11.530;2022-08-01T02:00:06;20.20;83.80
7806;DHT22;3948;48.138;11.530;2022-08-01T02:02:36;20.30;83.70
7806;DHT22;3948;48.138;11.530;2022-08-01T02:05:02;20.30;83.40
7806;DHT22;3948;48.138;11.530;2022-08-01T02:07:28;20.30;83.20
7806;DHT22;3948;48.138;11.530;2022-08-01T02:09:55;20.40;83.10
7806;DHT22;3948;48.138;11.530;2022-08-01T02:12:22;20.40;83.00
7806;DHT22;3948;48.138;11.530;2022-08-01T02:14:52;20.40;82.90
7806;DHT22;3948;48.138;11.530;2022-08-01T02:17:19;20.40;83.20
7806;DHT22;3948;48.138;11.530;2022-08-01T02:19:46;20.30;83.30
7806;DHT22;3948;48.138;11.530;2022-08-01T02:22:19;20.30;83.30
7806;DHT22;3948;48.138;11.530;2022-08-01T02:24:50;20.20;83.80
7806;DHT22;3948;48.138;11.530;2022-08-01T02:27:39;20.20;83.40
7806;DHT22;3948;48.138;11.530;2022-08-01T02:30:07;20.20;83.70
7806;DHT22;3948;48.138;11.530;2022-08-01T02:32:52;20.20;83.60
7806;DHT22;3948;48.138;11.530;2022-08-01T02:35:31;20.10;83.80
7806;DHT22;3948;48.138;11.530;2022-08-01T02:37:58;20.10;84.00
7806;DHT22;3948;48.138;11.530;2022-08-01T02:40:28;20.00;84.10
7806;DHT22;3948;48.138;11.530;2022-08-01T02:42:56;20.00;84.10
7806;DHT22;3948;48.138;11.530;2022-08-01T02:45:25;20.00;84.30
7806;DHT22;3948;48.138;11.530;2022-08-01T02:48:06;20.10;84.40
7806;DHT22;3948;48.138;11.530;2022-08-01T02:50:34;20.00;84.30
7806;DHT22;3948;48.138;11.530;2022-08-01T02:53:00;20.00;84.70
7806;DHT22;3948;48.138;11.530;2022-08-01T02:55:28;19.90;84.50
7806;DHT22;3948;48.138;11.530;2022-08-01T02:57:55;19.90;84.70
7806;DHT22;3948;48.138;11.530;2022-08-01T03:00:22;19.90;84.80
7806;DHT22;3948;48.138;11.530;2022-08-01T03:02:49;19.90;85.00
7806;DHT22;3948;48.138;11.530;2022-08-01T03:05:17;19.80;85.20
7806;DHT22;3948;48.138;11.530;2022-08-01T03:07:44;19.80;85.20
7806;DHT22;3948;48.138;11.530;2022-08-01T03:10:11;20.20;85.20
7806;DHT22;3948;48.138;11.530;2022-08-01T03:12:39;20.00;84.80
7806;DHT22;3948;48.138;11.530;2022-08-01T03:15:06;19.90;84.80
7806;DHT22;3948;48.138;11.530;2022-08-01T03:17:33;19.90;84.90
7806;DHT22;3948;48.138;11.530;2022-08-01T03:20:01;19.90;85.20
7806;DHT22;3948;48.138;11.530;2022-08-01T03:22:29;19.90;85.30
7806;DHT22;3948;48.138;11.530;2022-08-01T03:24:56;19.90;85.40
7806;DHT22;3948;48.138;11.530;2022-08-01T03:27:24;19.90;85.50
7806;DHT22;3948;48.138;11.530;2022-08-01T03:29:51;19.90;85.60
7806;DHT22;3948;48.138;11.530;2022-08-01T03:32:19;19.90;85.90
7806;DHT22;3948;48.138;11.530;2022-08-01T03:34:46;19.90;86.20
7806;DHT22;3948;48.138;11.530;2022-08-01T03:39:57;19.80;86.80
7806;DHT22;3948;48.138;11.530;2022-08-01T03:42:30;19.80;87.20
7806;DHT22;3948;48.138;11.530;2022-08-01T03:45:03;19.70;87.60
7806;DHT22;3948;48.138;11.530;2022-08-01T03:47:32;19.60;87.90
7806;DHT22;3948;48.138;11.530;2022-08-01T03:50:04;19.50;88.30
7806;DHT22;3948;48.138;11.530;2022-08-01T03:52:32;19.50;88.60
7806;DHT22;3948;48.138;11.530;2022-08-01T03:55:03;19.40;88.90
7806;DHT22;3948;48.138;11.530;2022-08-01T03:57:31;19.40;89.20
7806;DHT22;3948;48.138;11.530;2022-08-01T03:59:58;19.40;89.50
7806;DHT22;3948;48.138;11.530;2022-08-01T04:02:26;19.30;90.00
7806;DHT22;3948;48.138;11.530;2022-08-01T04:04:52;18.80;89.80
7806;DHT22;3948;48.138;11.530;2022-08-01T04:07:27;19.30;90.20
7806;DHT22;3948;48.138;11.530;2022-08-01T04:09:53;19.30;90.40
7806;DHT22;3948;48.138;11.530;2022-08-01T04:12:19;19.30;90.50
7806;DHT22;3948;48.138;11.530;2022-08-01T04:14:45;19.30;90.50
7806;DHT22;3948;48.138;11.530;2022-08-01T04:17:10;19.30;90.60
7806;DHT22;3948;48.138;11.530;2022-08-01T04:19:36;19.30;90.60
7806;DHT22;3948;48.138;11.530;2022-08-01T04:22:02;19.30;90.60
7806;DHT22;3948;48.138;11.530;2022-08-01T04:24:30;19.40;90.70
7806;DHT22;3948;48.138;11.530;2022-08-01T04:27:00;19.40;90.70
7806;DHT22;3948;48.138;11.530;2022-08-01T04:29:27;19.30;90.80
7806;DHT22;3948;48.138;11.530;2022-08-01T04:31:56;19.30;91.00
7806;DHT22;3948;48.138;11.530;2022-08-01T04:34:25;19.30;91.00
7806;DHT22;3948;48.138;11.530;2022-08-01T04:36:54;19.30;91.00
7806;DHT22;3948;48.138;11.530;2022-08-01T04:39:23;19.40;91.00
7806;DHT22;3948;48.138;11.530;2022-08-01T04:41:49;19.40;91.10
7806;DHT22;3948;48.138;11.530;2022-08-01T04:44:16;19.40;91.00
7806;DHT22;3948;48.138;11.530;2022-08-01T04:46:42;19.40;91.00
7806;DHT22;3948;48.138;11.530;2022-08-01T04:49:10;19.40;90.90
7806;DHT22;3948;48.138;11.530;2022-08-01T04:51:48;19.40;91.10
7806;DHT22;3948;48.138;11.530;2022-08-01T04:54:14;19.40;91.10
7806;DHT22;3948;48.138;11.530;2022-08-01T04:56:40;19.40;91.10
7806;DHT22;3948;48.138;11.530;2022-08-01T04:59:07;19.40;91.30
7806;DHT22;3948;48.138;11.530;2022-08-01T05:01:51;19.40;91.20
7806;DHT22;3948;48.138;11.530;2022-08-01T05:04:17;19.60;91.30
7806;DHT22;3948;48.138;11.530;2022-08-01T05:06:42;19.60;91.00
7806;DHT22;3948;48.138;11.530;2022-08-01T05:09:08;19.80;91.00
7806;DHT22;3948;48.138;11.530;2022-08-01T05:11:34;19.90;90.80
7806;DHT22;3948;48.138;11.530;2022-08-01T05:13:59;20.10;90.70
7806;DHT22;3948;48.138;11.530;2022-08-01T05:16:25;20.30;90.50
7806;DHT22;3948;48.138;11.530;2022-08-01T05:18:51;20.40;90.30
7806;DHT22;3948;48.138;11.530;2022-08-01T05:21:17;20.60;90.00
7806;DHT22;3948;48.138;11.530;2022-08-01T05:23:43;20.70;89.90
7806;DHT22;3948;48.138;11.530;2022-08-01T05:26:10;20.90;89.30
7806;DHT22;3948;48.138;11.530;2022-08-01T05:28:36;21.00;88.50
7806;DHT22;3948;48.138;11.530;2022-08-01T05:31:02;21.10;87.90
7806;DHT22;3948;48.138;11.530;2022-08-01T05:33:28;21.30;87.40
7806;DHT22;3948;48.138;11.530;2022-08-01T05:35:54;21.40;86.80
7806;DHT22;3948;48.138;11.530;2022-08-01T05:38:19;21.40;86.40
7806;DHT22;3948;48.138;11.530;2022-08-01T05:40:45;21.50;86.30
7806;DHT22;3948;48.138;11.530;2022-08-01T05:43:11;21.50;86.10
7806;DHT22;3948;48.138;11.530;2022-08-01T05:45:36;21.60;85.60
7806;DHT22;3948;48.138;11.530;2022-08-01T05:48:02;21.60;85.70
7806;DHT22;3948;48.138;11.530;2022-08-01T05:50:28;21.60;85.80
7806;DHT22;3948;48.138;11.530;2022-08-01T05:52:54;21.60;85.70
7806;DHT22;3948;48.138;11.530;2022-08-01T05:55:19;21.50;85.60
7806;DHT22;3948;48.138;11.530;2022-08-01T05:57:45;21.50;85.60
7806;DHT22;3948;48.138;11.530;2022-08-01T06:00:11;21.60;86.30
7806;DHT22;3948;48.138;11.530;2022-08-01T06:02:42;21.60;85.50
7806;DHT22;3948;48.138;11.530;2022-08-01T06:05:09;21.60;86.00
7806;DHT22;3948;48.138;11.530;2022-08-01T06:07:35;21.60;85.90
7806;DHT22;3948;48.138;11.530;2022-08-01T06:10:00;21.50;86.60
7806;DHT22;3948;48.138;11.530;2022-08-01T06:12:26;21.50;86.50
7806;DHT22;3948;48.138;11.530;2022-08-01T06:14:52;21.50;86.30
7806;DHT22;3948;48.138;11.530;2022-08-01T06:17:17;21.50;85.90
7806;DHT22;3948;48.138;11.530;2022-08-01T06:19:43;21.50;85.90
7806;DHT22;3948;48.138;11.530;2022-08-01T06:22:09;21.60;85.90
7806;DHT22;3948;48.138;11.530;2022-08-01T06:24:34;21.60;86.00
7806;DHT22;3948;48.138;11.530;2022-08-01T06:27:01;21.60;85.20
7806;DHT22;3948;48.138;11.530;2022-08-01T06:29:27;21.70;85.20
7806;DHT22;3948;48.138;11.530;2022-08-01T06:31:55;21.70;84.80
7806;DHT22;3948;48.138;11.530;2022-08-01T06:34:20;21.70;85.00
7806;DHT22;3948;48.138;11.530;2022-08-01T06:36:47;21.70;84.70
7806;DHT22;3948;48.138;11.530;2022-08-01T06:39:13;21.80;85.10
7806;DHT22;3948;48.138;11.530;2022-08-01T06:41:38;21.90;84.30
7806;DHT22;3948;48.138;11.530;2022-08-01T06:44:07;21.90;84.40
7806;DHT22;3948;48.138;11.530;2022-08-01T06:46:32;22.00;84.50
7806;DHT22;3948;48.138;11.530;2022-08-01T06:48:58;22.10;84.60
7806;DHT22;3948;48.138;11.530;2022-08-01T06:51:24;22.20;84.40
7806;DHT22;3948;48.138;11.530;2022-08-01T06:53:50;22.20;83.20
7806;DHT22;3948;48.138;11.530;2022-08-01T06:56:15;22.30;83.70
7806;DHT22;3948;48.138;11.530;2022-08-01T06:58:50;22.40;84.00
7806;DHT22;3948;48.138;11.530;2022-08-01T07:01:23;22.50;83.50
7806;DHT22;3948;48.138;11.530;2022-08-01T07:03:49;22.50;83.00
7806;DHT22;3948;48.138;11.530;2022-08-01T07:06:15;22.50;83.00
7806;DHT22;3948;48.138;11.530;2022-08-01T07:08:40;22.50;82.50
7806;DHT22;3948;48.138;11.530;2022-08-01T07:11:06;22.50;83.40
7806;DHT22;3948;48.138;11.530;2022-08-01T07:13:32;22.60;83.20
7806;DHT22;3948;48.138;11.530;2022-08-01T07:15:58;22.70;83.20
7806;DHT22;3948;48.138;11.530;2022-08-01T07:18:24;22.80;82.60
7806;DHT22;3948;48.138;11.530;2022-08-01T07:20:50;22.90;82.50
7806;DHT22;3948;48.138;11.530;2022-08-01T07:23:16;23.10;81.20
7806;DHT22;3948;48.138;11.530;2022-08-01T07:25:42;23.20;81.20
7806;DHT22;3948;48.138;11.530;2022-08-01T07:28:08;23.50;81.00
7806;DHT22;3948;48.138;11.530;2022-08-01T07:30:38;23.90;80.20
7806;DHT22;3948;48.138;11.530;2022-08-01T07:33:07;24.40;78.60
7806;DHT22;3948;48.138;11.530;2022-08-01T07:35:33;25.00;77.70
7806;DHT22;3948;48.138;11.530;2022-08-01T07:37:59;25.20;75.60
7806;DHT22;3948;48.138;11.530;2022-08-01T07:40:25;25.50;75.10
7806;DHT22;3948;48.138;11.530;2022-08-01T07:42:50;26.30;73.60
7806;DHT22;3948;48.138;11.530;2022-08-01T07:45:16;27.10;71.50
7806;DHT22;3948;48.138;11.530;2022-08-01T07:47:42;28.30;68.10
7806;DHT22;3948;48.138;11.530;2022-08-01T07:50:08;29.60;64.10
7806;DHT22;3948;48.138;11.530;2022-08-01T07:52:34;31.50;59.10
7806;DHT22;3948;48.138;11.530;2022-08-01T07:55:00;33.10;52.90
7806;DHT22;3948;48.138;11.530;2022-08-01T07:57:25;34.70;48.50
7806;DHT22;3948;48.138;11.530;2022-08-01T07:59:51;36.50;44.50
7806;DHT22;3948;48.138;11.530;2022-08-01T08:02:17;38.10;39.60
7806;DHT22;3948;48.138;11.530;2022-08-01T08:04:43;39.20;36.70
7806;DHT22;3948;48.138;11.530;2022-08-01T08:07:08;40.00;33.40
7806;DHT22;3948;48.138;11.530;2022-08-01T08:09:34;40.10;32.40
7806;DHT22;3948;48.138;11.530;2022-08-01T08:12:00;40.90;31.30
7806;DHT22;3948;48.138;11.530;2022-08-01T08:14:25;41.90;29.60
7806;DHT22;3948;48.138;11.530;2022-08-01T08:16:51;39.70;29.70
7806;DHT22;3948;48.138;11.530;2022-08-01T08:19:17;40.10;30.70
7806;DHT22;3948;48.138;11.530;2022-08-01T08:21:43;40.80;29.80
7806;DHT22;3948;48.138;11.530;2022-08-01T08:24:09;41.40;29.00
7806;DHT22;3948;48.138;11.530;2022-08-01T08:26:50;42.70;28.00
7806;DHT22;3948;48.138;11.530;2022-08-01T08:29:16;44.00;26.70
7806;DHT22;3948;48.138;11.530;2022-08-01T08:31:42;44.70;25.80
7806;DHT22;3948;48.138;11.530;2022-08-01T08:34:08;44.30;25.90
7806;DHT22;3948;48.138;11.530;2022-08-01T08:36:34;44.40;25.50
7806;DHT22;3948;48.138;11.530;2022-08-01T08:39:00;44.90;25.50
7806;DHT22;3948;48.138;11.530;2022-08-01T08:41:26;45.10;24.80
7806;DHT22;3948;48.138;11.530;2022-08-01T08:43:51;42.70;25.90
7806;DHT22;3948;48.138;11.530;2022-08-01T08:46:18;42.00;27.10
7806;DHT22;3948;48.138;11.530;2022-08-01T08:48:45;42.50;26.10
7806;DHT22;3948;48.138;11.530;2022-08-01T08:51:12;41.90;26.80
7806;DHT22;3948;48.138;11.530;2022-08-01T08:53:42;43.20;26.00
7806;DHT22;3948;48.138;11.530;2022-08-01T08:56:11;43.50;24.80
7806;DHT22;3948;48.138;11.530;2022-08-01T08:58:37;43.70;25.80
7806;DHT22;3948;48.138;11.530;2022-08-01T09:01:07;44.80;24.40
7806;DHT22;3948;48.138;11.530;2022-08-01T09:03:36;43.80;25.30
7806;DHT22;3948;48.138;11.530;2022-08-01T09:06:02;44.90;24.50
7806;DHT22;3948;48.138;11.530;2022-08-01T09:08:28;45.90;23.60
7806;DHT22;3948;48.138;11.530;2022-08-01T09:10:54;46.20;23.40
7806;DHT22;3948;48.138;11.530;2022-08-01T09:13:20;47.30;22.90
7806;DHT22;3948;48.138;11.530;2022-08-01T09:15:47;48.50;22.00
7806;DHT22;3948;48.138;11.530;2022-08-01T09:18:32;48.80;21.50
7806;DHT22;3948;48.138;11.530;2022-08-01T09:21:13;47.60;21.50
7806;DHT22;3948;48.138;11.530;2022-08-01T09:23:48;43.90;23.20
7806;DHT22;3948;48.138;11.530;2022-08-01T09:26:16;44.40;24.30
7806;DHT22;3948;48.138;11.530;2022-08-01T09:28:43;44.80;23.50
7806;DHT22;3948;48.138;11.530;2022-08-01T09:31:17;45.20;23.40
7806;DHT22;3948;48.138;11.530;2022-08-01T09:34:01;46.00;22.60
7806;DHT22;3948;48.138;11.530;2022-08-01T09:36:48;47.00;22.00
7806;DHT22;3948;48.138;11.530;2022-08-01T09:39:19;48.00;21.50
7806;DHT22;3948;48.138;11.530;2022-08-01T09:41:45;47.50;21.60
7806;DHT22;3948;48.138;11.530;2022-08-01T09:44:12;48.10;21.40
7806;DHT22;3948;48.138;11.530;2022-08-01T09:46:54;48.40;21.20
7806;DHT22;3948;48.138;11.530;2022-08-01T09:49:35;47.40;22.20
7806;DHT22;3948;48.138;11.530;2022-08-01T09:52:16;45.00;22.60
7806;DHT22;3948;48.138;11.530;2022-08-01T09:54:44;46.40;22.20
7806;DHT22;3948;48.138;11.530;2022-08-01T09:57:18;46.80;21.20
7806;DHT22;3948;48.138;11.530;2022-08-01T09:59:49;45.80;21.40
7806;DHT22;3948;48.138;11.530;2022-08-01T10:02:31;44.10;23.80
7806;DHT22;3948;48.138;11.530;2022-08-01T10:04:58;45.70;22.80
7806;DHT22;3948;48.138;11.530;2022-08-01T10:07:23;46.60;22.10
7806;DHT22;3948;48.138;11.530;2022-08-01T10:09:49;47.60;21.70
7806;DHT22;3948;48.138;11.530;2022-08-01T10:12:21;48.70;20.80
7806;DHT22;3948;48.138;11.530;2022-08-01T10:14:49;49.10;20.50
7806;DHT22;3948;48.138;11.530;2022-08-01T10:17:16;49.90;20.40
7806;DHT22;3948;48.138;11.530;2022-08-01T10:19:43;49.70;20.00
7806;DHT22;3948;48.138;11.530;2022-08-01T10:22:12;49.70;20.00
7806;DHT22;3948;48.138;11.530;2022-08-01T10:24:44;50.00;19.90
7806;DHT22;3948;48.138;11.530;2022-08-01T10:27:11;50.00;19.80
7806;DHT22;3948;48.138;11.530;2022-08-01T10:30:07;50.30;19.30
7806;DHT22;3948;48.138;11.530;2022-08-01T10:32:35;50.90;19.20
7806;DHT22;3948;48.138;11.530;2022-08-01T10:35:02;49.80;18.60
7806;DHT22;3948;48.138;11.530;2022-08-01T10:37:28;49.30;19.80
7806;DHT22;3948;48.138;11.530;2022-08-01T10:39:55;49.70;19.70
7806;DHT22;3948;48.138;11.530;2022-08-01T10:42:21;50.10;19.30
7806;DHT22;3948;48.138;11.530;2022-08-01T10:44:47;50.90;18.80
7806;DHT22;3948;48.138;11.530;2022-08-01T10:47:17;51.40;18.70
7806;DHT22;3948;48.138;11.530;2022-08-01T10:49:48;51.40;18.30
7806;DHT22;3948;48.138;11.530;2022-08-01T10:52:18;51.00;18.50
7806;DHT22;3948;48.138;11.530;2022-08-01T10:54:44;50.40;18.50
7806;DHT22;3948;48.138;11.530;2022-08-01T10:57:10;48.50;19.50
7806;DHT22;3948;48.138;11.530;2022-08-01T10:59:49;49.00;19.70
7806;DHT22;3948;48.138;11.530;2022-08-01T11:02:27;49.80;19.10
7806;DHT22;3948;48.138;11.530;2022-08-01T11:05:21;50.10;19.40
7806;DHT22;3948;48.138;11.530;2022-08-01T11:07:53;48.80;19.20
7806;DHT22;3948;48.138;11.530;2022-08-01T11:12:51;45.30;21.90
7806;DHT22;3948;48.138;11.530;2022-08-01T11:15:19;45.10;22.10
7806;DHT22;3948;48.138;11.530;2022-08-01T11:17:54;45.80;21.60
7806;DHT22;3948;48.138;11.530;2022-08-01T11:20:28;47.40;20.50
7806;DHT22;3948;48.138;11.530;2022-08-01T11:30:46;47.60;20.30
7806;DHT22;3948;48.138;11.530;2022-08-01T11:33:14;46.50;20.20
7806;DHT22;3948;48.138;11.530;2022-08-01T11:41:13;45.10;21.70
7806;DHT22;3948;48.138;11.530;2022-08-01T11:43:58;44.50;21.80
7806;DHT22;3948;48.138;11.530;2022-08-01T11:52:12;43.10;22.80
7806;DHT22;3948;48.138;11.530;2022-08-01T11:54:45;42.20;23.50
7806;DHT22;3948;48.138;11.530;2022-08-01T11:57:27;43.60;23.10
7806;DHT22;3948;48.138;11.530;2022-08-01T11:59:58;44.50;22.40
7806;DHT22;3948;48.138;11.530;2022-08-01T12:02:27;45.80;21.50
7806;DHT22;3948;48.138;11.530;2022-08-01T12:05:02;46.90;21.00
7806;DHT22;3948;48.138;11.530;2022-08-01T12:07:31;48.70;19.70
7806;DHT22;3948;48.138;11.530;2022-08-01T12:10:18;49.00;18.60
7806;DHT22;3948;48.138;11.530;2022-08-01T12:15:11;47.40;19.00
7806;DHT22;3948;48.138;11.530;2022-08-01T12:20:05;43.80;21.20
7806;DHT22;3948;48.138;11.530;2022-08-01T12:22:31;44.30;21.60
7806;DHT22;3948;48.138;11.530;2022-08-01T12:25:09;44.10;21.30
7806;DHT22;3948;48.138;11.530;2022-08-01T12:27:36;44.10;21.60
7806;DHT22;3948;48.138;11.530;2022-08-01T12:30:05;44.30;21.90
7806;DHT22;3948;48.138;11.530;2022-08-01T12:32:34;45.10;21.10
7806;DHT22;3948;48.138;11.530;2022-08-01T12:35:07;45.20;20.50
7806;DHT22;3948;48.138;11.530;2022-08-01T12:37:40;45.30;20.80
7806;DHT22;3948;48.138;11.530;2022-08-01T12:40:36;44.40;20.70
7806;DHT22;3948;48.138;11.530;2022-08-01T12:43:07;41.90;22.40
7806;DHT22;3948;48.138;11.530;2022-08-01T12:45:42;41.70;23.50
7806;DHT22;3948;48.138;11.530;2022-08-01T12:48:13;42.50;22.90
7806;DHT22;3948;48.138;11.530;2022-08-01T12:50:46;43.00;21.80
7806;DHT22;3948;48.138;11.530;2022-08-01T12:53:13;42.50;22.20
7806;DHT22;3948;48.138;11.530;2022-08-01T12:55:52;41.30;23.10
7806;DHT22;3948;48.138;11.530;2022-08-01T12:58:18;40.70;23.00
7806;DHT22;3948;48.138;11.530;2022-08-01T13:00:47;39.80;24.00
7806;DHT22;3948;48.138;11.530;2022-08-01T13:03:18;39.50;24.90
7806;DHT22;3948;48.138;11.530;2022-08-01T13:08:20;39.90;24.10
7806;DHT22;3948;48.138;11.530;2022-08-01T13:10:46;39.00;25.00
7806;DHT22;3948;48.138;11.530;2022-08-01T13:13:14;37.80;25.50
7806;DHT22;3948;48.138;11.530;2022-08-01T13:15:42;37.00;26.70
7806;DHT22;3948;48.138;11.530;2022-08-01T13:18:30;36.10;27.20
7806;DHT22;3948;48.138;11.530;2022-08-01T13:23:36;34.00;30.70
7806;DHT22;3948;48.138;11.530;2022-08-01T13:26:03;33.20;32.50
7806;DHT22;3948;48.138;11.530;2022-08-01T13:28:29;32.70;34.00
7806;DHT22;3948;48.138;11.530;2022-08-01T13:31:04;32.20;35.10
7806;DHT22;3948;48.138;11.530;2022-08-01T13:33:45;31.80;35.60
7806;DHT22;3948;48.138;11.530;2022-08-01T13:36:12;31.90;36.00
7806;DHT22;3948;48.138;11.530;2022-08-01T13:38:39;31.90;35.90
7806;DHT22;3948;48.138;11.530;2022-08-01T13:41:24;32.30;35.60
7806;DHT22;3948;48.138;11.530;2022-08-01T13:43:50;32.70;35.10
7806;DHT22;3948;48.138;11.530;2022-08-01T13:46:16;32.90;34.30
7806;DHT22;3948;48.138;11.530;2022-08-01T13:48:42;32.80;34.40
7806;DHT22;3948;48.138;11.530;2022-08-01T13:51:07;32.70;34.00
7806;DHT22;3948;48.138;11.530;2022-08-01T13:53:33;32.20;34.20
7806;DHT22;3948;48.138;11.530;2022-08-01T13:55:59;31.70;34.70
7806;DHT22;3948;48.138;11.530;2022-08-01T13:58:25;31.40;35.40
7806;DHT22;3948;48.138;11.530;2022-08-01T14:00:51;31.20;35.70
7806;DHT22;3948;48.138;11.530;2022-08-01T14:03:16;31.00;35.70
7806;DHT22;3948;48.138;11.530;2022-08-01T14:05:43;30.80;36.00
7806;DHT22;3948;48.138;11.530;2022-08-01T14:08:09;30.60;36.20
7806;DHT22;3948;48.138;11.530;2022-08-01T14:10:35;30.40;36.80
7806;DHT22;3948;48.138;11.530;2022-08-01T14:13:00;30.10;37.50
7806;DHT22;3948;48.138;11.530;2022-08-01T14:15:26;29.80;41.10
7806;DHT22;3948;48.138;11.530;2022-08-01T14:17:52;29.60;42.20
7806;DHT22;3948;48.138;11.530;2022-08-01T14:20:18;29.30;43.40
7806;DHT22;3948;48.138;11.530;2022-08-01T14:22:48;29.10;45.30
7806;DHT22;3948;48.138;11.530;2022-08-01T14:25:14;28.90;46.10
7806;DHT22;3948;48.138;11.530;2022-08-01T14:27:39;28.90;46.70
7806;DHT22;3948;48.138;11.530;2022-08-01T14:30:07;28.80;46.50
7806;DHT22;3948;48.138;11.530;2022-08-01T14:32:33;28.90;46.10
7806;DHT22;3948;48.138;11.530;2022-08-01T14:35:00;29.10;45.70
7806;DHT22;3948;48.138;11.530;2022-08-01T14:37:29;29.20;44.50
7806;DHT22;3948;48.138;11.530;2022-08-01T14:39:58;29.90;44.80
7806;DHT22;3948;48.138;11.530;2022-08-01T14:42:25;29.20;43.80
7806;DHT22;3948;48.138;11.530;2022-08-01T14:44:51;29.00;44.50
7806;DHT22;3948;48.138;11.530;2022-08-01T14:47:17;28.90;45.10
7806;DHT22;3948;48.138;11.530;2022-08-01T14:49:42;28.80;45.40
7806;DHT22;3948;48.138;11.530;2022-08-01T14:52:08;28.70;45.60
7806;DHT22;3948;48.138;11.530;2022-08-01T14:54:34;28.40;46.30
7806;DHT22;3948;48.138;11.530;2022-08-01T14:56:59;28.20;47.00
7806;DHT22;3948;48.138;11.530;2022-08-01T14:59:25;27.90;47.20
7806;DHT22;3948;48.138;11.530;2022-08-01T15:01:51;27.70;48.00
7806;DHT22;3948;48.138;11.530;2022-08-01T15:04:16;27.60;48.50
7806;DHT22;3948;48.138;11.530;2022-08-01T15:06:43;27.40;49.40
7806;DHT22;3948;48.138;11.530;2022-08-01T15:09:09;27.10;50.90
7806;DHT22;3948;48.138;11.530;2022-08-01T15:11:35;26.90;51.20
7806;DHT22;3948;48.138;11.530;2022-08-01T15:14:01;26.80;50.40
7806;DHT22;3948;48.138;11.530;2022-08-01T15:16:46;26.80;50.70
7806;DHT22;3948;48.138;11.530;2022-08-01T15:19:11;26.70;50.40
7806;DHT22;3948;48.138;11.530;2022-08-01T15:21:37;26.70;50.60
7806;DHT22;3948;48.138;11.530;2022-08-01T15:24:03;26.60;50.70
7806;DHT22;3948;48.138;11.530;2022-08-01T15:26:29;26.60;51.00
7806;DHT22;3948;48.138;11.530;2022-08-01T15:28:55;26.60;50.90
7806;DHT22;3948;48.138;11.530;2022-08-01T15:31:20;26.60;50.80
7806;DHT22;3948;48.138;11.530;2022-08-01T15:33:46;26.50;50.90
7806;DHT22;3948;48.138;11.530;2022-08-01T15:36:12;26.40;51.30
7806;DHT22;3948;48.138;11.530;2022-08-01T15:38:38;26.20;51.90
7806;DHT22;3948;48.138;11.530;2022-08-01T15:41:04;26.00;53.00
7806;DHT22;3948;48.138;11.530;2022-08-01T15:43:30;25.90;54.00
7806;DHT22;3948;48.138;11.530;2022-08-01T15:45:56;25.70;55.00
7806;DHT22;3948;48.138;11.530;2022-08-01T15:48:22;25.50;56.60
7806;DHT22;3948;48.138;11.530;2022-08-01T15:50:48;25.30;56.60
7806;DHT22;3948;48.138;11.530;2022-08-01T15:53:14;25.20;57.30
7806;DHT22;3948;48.138;11.530;2022-08-01T15:55:40;25.10;57.70
7806;DHT22;3948;48.138;11.530;2022-08-01T15:58:06;25.00;57.80
7806;DHT22;3948;48.138;11.530;2022-08-01T16:00:32;24.90;57.90
7806;DHT22;3948;48.138;11.530;2022-08-01T16:02:58;24.90;58.00
7806;DHT22;3948;48.138;11.530;2022-08-01T16:05:24;24.80;57.90
7806;DHT22;3948;48.138;11.530;2022-08-01T16:07:50;24.80;58.90
7806;DHT22;3948;48.138;11.530;2022-08-01T16:10:15;24.60;58.20
7806;DHT22;3948;48.138;11.530;2022-08-01T16:12:41;24.60;58.40
7806;DHT22;3948;48.138;11.530;2022-08-01T16:15:08;24.60;58.70
7806;DHT22;3948;48.138;11.530;2022-08-01T16:17:34;24.50;58.70
7806;DHT22;3948;48.138;11.530;2022-08-01T16:20:00;24.50;58.80
7806;DHT22;3948;48.138;11.530;2022-08-01T16:22:25;24.40;59.30
7806;DHT22;3948;48.138;11.530;2022-08-01T16:24:51;24.40;59.50
7806;DHT22;3948;48.138;11.530;2022-08-01T16:27:17;24.30;58.50